College Station, Texas
Current Conditions -  °F | °C
As of 10:53 AM on Tuesday 21 Oct 2014 (Local Time) from KCLL Reporting Station
Clear Clear  
Wind Chill: 72°   Ceiling: Unl
Heat Index: 72°   Visibility: 10mi
Dew Point: 55°   Wind: 6mph
Humidity: 55%   Direction: 100°E
Pressure: 30.1"   Gusts: NA
Location:  30.62°N, 96.32°W
Report Text: KCLL 211553Z 10005KT 10SM CLR 22/13 A3010 RMK AO2 SLP189 T02220128
Loading
Personal Weather Stations






























Interactive Weather Map New forecast layout! Learn more

10-Day Weather Forecast

Advertisements
Track Severe Weather on mobile